sensor_id;sensor_type;location;lat;lon;timestamp;temperature;humidity
46440;DHT22;32138;50.966;6.968;2023-07-29T00:00:03;20.20;99.90
46440;DHT22;32138;50.966;6.968;2023-07-29T00:01:34;20.20;99.90
46440;DHT22;32138;50.966;6.968;2023-07-29T00:03:06;20.20;99.90
46440;DHT22;32138;50.966;6.968;2023-07-29T00:04:37;20.30;99.90
46440;DHT22;32138;50.966;6.968;2023-07-29T00:06:09;20.20;99.90
46440;DHT22;32138;50.966;6.968;2023-07-29T00:07:40;20.20;99.90
46440;DHT22;32138;50.966;6.968;2023-07-29T00:09:10;20.20;99.90
46440;DHT22;32138;50.966;6.968;2023-07-29T00:10:41;20.20;99.90
46440;DHT22;32138;50.966;6.968;2023-07-29T00:12:12;20.20;99.90
46440;DHT22;32138;50.966;6.968;2023-07-29T00:13:43;20.20;99.90
46440;DHT22;32138;50.966;6.968;2023-07-29T00:15:13;20.20;99.90
46440;DHT22;32138;50.966;6.968;2023-07-29T00:16:44;20.20;99.90
46440;DHT22;32138;50.966;6.968;2023-07-29T00:18:15;20.20;99.90
46440;DHT22;32138;50.966;6.968;2023-07-29T00:19:46;20.10;99.90
46440;DHT22;32138;50.966;6.968;2023-07-29T00:21:17;20.10;99.90
46440;DHT22;32138;50.966;6.968;2023-07-29T00:22:48;20.10;99.90
46440;DHT22;32138;50.966;6.968;2023-07-29T00:24:24;20.20;99.90
46440;DHT22;32138;50.966;6.968;2023-07-29T00:25:54;20.10;99.90
46440;DHT22;32138;50.966;6.968;2023-07-29T00:27:26;20.10;99.90
46440;DHT22;32138;50.966;6.968;2023-07-29T00:28:56;20.20;99.90
46440;DHT22;32138;50.966;6.968;2023-07-29T00:30:27;20.10;99.90
46440;DHT22;32138;50.966;6.968;2023-07-29T00:31:58;20.20;99.90
46440;DHT22;32138;50.966;6.968;2023-07-29T00:33:29;20.10;99.90
46440;DHT22;32138;50.966;6.968;2023-07-29T00:35:00;20.00;99.90
46440;DHT22;32138;50.966;6.968;2023-07-29T00:36:31;20.00;99.90
46440;DHT22;32138;50.966;6.968;2023-07-29T00:38:02;20.00;99.90
46440;DHT22;32138;50.966;6.968;2023-07-29T00:39:32;20.00;99.90
46440;DHT22;32138;50.966;6.968;2023-07-29T00:41:03;20.00;99.90
46440;DHT22;32138;50.966;6.968;2023-07-29T00:42:35;20.00;99.90
46440;DHT22;32138;50.966;6.968;2023-07-29T00:44:06;19.90;99.90
46440;DHT22;32138;50.966;6.968;2023-07-29T00:45:37;19.80;99.90
46440;DHT22;32138;50.966;6.968;2023-07-29T00:47:08;19.80;99.90
46440;DHT22;32138;50.966;6.968;2023-07-29T00:48:40;19.70;99.90
46440;DHT22;32138;50.966;6.968;2023-07-29T00:50:12;19.80;99.90
46440;DHT22;32138;50.966;6.968;2023-07-29T00:51:43;19.70;99.90
46440;DHT22;32138;50.966;6.968;2023-07-29T00:53:14;19.70;99.90
46440;DHT22;32138;50.966;6.968;2023-07-29T00:54:45;19.70;99.90
46440;DHT22;32138;50.966;6.968;2023-07-29T00:56:16;19.80;99.90
46440;DHT22;32138;50.966;6.968;2023-07-29T00:57:47;19.80;99.90
46440;DHT22;32138;50.966;6.968;2023-07-29T00:59:19;19.80;99.90
46440;DHT22;32138;50.966;6.968;2023-07-29T01:00:50;19.80;99.90
46440;DHT22;32138;50.966;6.968;2023-07-29T01:02:21;19.90;99.90
46440;DHT22;32138;50.966;6.968;2023-07-29T01:03:52;19.80;99.90
46440;DHT22;32138;50.966;6.968;2023-07-29T01:05:28;19.70;99.90
46440;DHT22;32138;50.966;6.968;2023-07-29T01:09:03;19.80;99.90
46440;DHT22;32138;50.966;6.968;2023-07-29T01:11:30;19.90;99.90
46440;DHT22;32138;50.966;6.968;2023-07-29T01:15:26;19.80;99.90
46440;DHT22;32138;50.966;6.968;2023-07-29T01:17:07;19.80;99.90
46440;DHT22;32138;50.966;6.968;2023-07-29T01:18:40;19.80;99.90
46440;DHT22;32138;50.966;6.968;2023-07-29T01:20:15;19.70;99.90
46440;DHT22;32138;50.966;6.968;2023-07-29T01:21:46;19.80;99.90
46440;DHT22;32138;50.966;6.968;2023-07-29T01:23:33;19.70;99.90
46440;DHT22;32138;50.966;6.968;2023-07-29T01:25:05;19.70;99.90
46440;DHT22;32138;50.966;6.968;2023-07-29T01:26:36;19.70;99.90
46440;DHT22;32138;50.966;6.968;2023-07-29T01:28:07;19.80;99.90
46440;DHT22;32138;50.966;6.968;2023-07-29T01:29:37;19.80;99.90
46440;DHT22;32138;50.966;6.968;2023-07-29T01:31:38;19.90;99.90
46440;DHT22;32138;50.966;6.968;2023-07-29T01:33:23;19.90;99.90
46440;DHT22;32138;50.966;6.968;2023-07-29T01:35:28;19.90;99.90
46440;DHT22;32138;50.966;6.968;2023-07-29T01:37:05;19.70;99.90
46440;DHT22;32138;50.966;6.968;2023-07-29T01:38:41;19.60;99.90
46440;DHT22;32138;50.966;6.968;2023-07-29T01:40:13;19.70;99.90
46440;DHT22;32138;50.966;6.968;2023-07-29T01:41:44;19.60;99.90
46440;DHT22;32138;50.966;6.968;2023-07-29T01:43:16;19.70;99.90
46440;DHT22;32138;50.966;6.968;2023-07-29T01:44:49;19.80;99.90
46440;DHT22;32138;50.966;6.968;2023-07-29T01:46:20;19.80;99.90
46440;DHT22;32138;50.966;6.968;2023-07-29T01:47:51;19.90;99.90
46440;DHT22;32138;50.966;6.968;2023-07-29T01:49:22;19.90;99.90
46440;DHT22;32138;50.966;6.968;2023-07-29T01:50:53;19.90;99.90
46440;DHT22;32138;50.966;6.968;2023-07-29T01:52:23;19.90;99.90
46440;DHT22;32138;50.966;6.968;2023-07-29T01:53:54;19.80;99.90
46440;DHT22;32138;50.966;6.968;2023-07-29T01:55:25;19.80;99.90
46440;DHT22;32138;50.966;6.968;2023-07-29T01:56:56;19.70;99.90
46440;DHT22;32138;50.966;6.968;2023-07-29T01:58:27;19.80;99.90
46440;DHT22;32138;50.966;6.968;2023-07-29T01:59:58;19.80;99.90
46440;DHT22;32138;50.966;6.968;2023-07-29T02:01:29;19.80;99.90
46440;DHT22;32138;50.966;6.968;2023-07-29T02:03:01;19.80;99.90
46440;DHT22;32138;50.966;6.968;2023-07-29T02:04:32;19.80;99.90
46440;DHT22;32138;50.966;6.968;2023-07-29T02:06:03;19.80;99.90
46440;DHT22;32138;50.966;6.968;2023-07-29T02:07:34;19.90;99.90
46440;DHT22;32138;50.966;6.968;2023-07-29T02:09:04;19.80;99.90
46440;DHT22;32138;50.966;6.968;2023-07-29T02:10:35;19.80;99.90
46440;DHT22;32138;50.966;6.968;2023-07-29T02:12:06;19.70;99.90
46440;DHT22;32138;50.966;6.968;2023-07-29T02:13:37;19.60;99.90
46440;DHT22;32138;50.966;6.968;2023-07-29T02:15:09;19.60;99.90
46440;DHT22;32138;50.966;6.968;2023-07-29T02:16:40;19.60;99.90
46440;DHT22;32138;50.966;6.968;2023-07-29T02:18:10;19.50;99.90
46440;DHT22;32138;50.966;6.968;2023-07-29T02:19:41;19.60;99.90
46440;DHT22;32138;50.966;6.968;2023-07-29T02:21:12;19.50;99.90
46440;DHT22;32138;50.966;6.968;2023-07-29T02:22:42;19.50;99.90
46440;DHT22;32138;50.966;6.968;2023-07-29T02:24:13;19.60;99.90
46440;DHT22;32138;50.966;6.968;2023-07-29T02:25:44;19.60;99.90
46440;DHT22;32138;50.966;6.968;2023-07-29T02:27:15;19.60;99.90
46440;DHT22;32138;50.966;6.968;2023-07-29T02:28:46;19.50;99.90
46440;DHT22;32138;50.966;6.968;2023-07-29T02:30:17;19.60;99.90
46440;DHT22;32138;50.966;6.968;2023-07-29T02:31:47;19.60;99.90
46440;DHT22;32138;50.966;6.968;2023-07-29T02:33:18;19.60;99.90
46440;DHT22;32138;50.966;6.968;2023-07-29T02:34:49;19.60;99.90
46440;DHT22;32138;50.966;6.968;2023-07-29T02:36:20;19.50;99.90
46440;DHT22;32138;50.966;6.968;2023-07-29T02:37:50;19.50;99.90
46440;DHT22;32138;50.966;6.968;2023-07-29T02:39:21;19.60;99.90
46440;DHT22;32138;50.966;6.968;2023-07-29T02:40:52;19.60;99.90
46440;DHT22;32138;50.966;6.968;2023-07-29T02:42:22;19.70;99.90
46440;DHT22;32138;50.966;6.968;2023-07-29T02:43:53;19.70;99.90
46440;DHT22;32138;50.966;6.968;2023-07-29T02:45:24;19.70;99.90
46440;DHT22;32138;50.966;6.968;2023-07-29T02:46:55;19.80;99.90
46440;DHT22;32138;50.966;6.968;2023-07-29T02:48:26;19.70;99.90
46440;DHT22;32138;50.966;6.968;2023-07-29T02:49:57;19.70;99.90
46440;DHT22;32138;50.966;6.968;2023-07-29T02:51:27;19.60;99.90
46440;DHT22;32138;50.966;6.968;2023-07-29T02:52:58;19.70;99.90
46440;DHT22;32138;50.966;6.968;2023-07-29T02:54:29;19.70;99.90
46440;DHT22;32138;50.966;6.968;2023-07-29T02:55:59;19.60;99.90
46440;DHT22;32138;50.966;6.968;2023-07-29T02:57:30;19.60;99.90
46440;DHT22;32138;50.966;6.968;2023-07-29T02:59:01;19.60;99.90
46440;DHT22;32138;50.966;6.968;2023-07-29T03:00:32;19.60;99.90
46440;DHT22;32138;50.966;6.968;2023-07-29T03:02:03;19.60;99.90
46440;DHT22;32138;50.966;6.968;2023-07-29T03:03:34;19.70;99.90
46440;DHT22;32138;50.966;6.968;2023-07-29T03:05:05;19.60;99.90
46440;DHT22;32138;50.966;6.968;2023-07-29T03:06:36;19.60;99.90
46440;DHT22;32138;50.966;6.968;2023-07-29T03:08:06;19.70;99.90
46440;DHT22;32138;50.966;6.968;2023-07-29T03:09:37;19.70;99.90
46440;DHT22;32138;50.966;6.968;2023-07-29T03:11:10;19.70;99.90
46440;DHT22;32138;50.966;6.968;2023-07-29T03:12:42;19.70;99.90
46440;DHT22;32138;50.966;6.968;2023-07-29T03:14:12;19.60;99.90
46440;DHT22;32138;50.966;6.968;2023-07-29T03:15:43;19.60;99.90
46440;DHT22;32138;50.966;6.968;2023-07-29T03:17:14;19.70;99.90
46440;DHT22;32138;50.966;6.968;2023-07-29T03:18:45;19.60;99.90
46440;DHT22;32138;50.966;6.968;2023-07-29T03:20:15;19.60;99.90
46440;DHT22;32138;50.966;6.968;2023-07-29T03:21:49;19.60;99.90
46440;DHT22;32138;50.966;6.968;2023-07-29T03:23:19;19.60;99.90
46440;DHT22;32138;50.966;6.968;2023-07-29T03:24:50;19.60;99.90
46440;DHT22;32138;50.966;6.968;2023-07-29T03:26:21;19.60;99.90
46440;DHT22;32138;50.966;6.968;2023-07-29T03:27:51;19.60;99.90
46440;DHT22;32138;50.966;6.968;2023-07-29T03:29:22;19.60;99.90
46440;DHT22;32138;50.966;6.968;2023-07-29T03:30:54;19.60;99.90
46440;DHT22;32138;50.966;6.968;2023-07-29T03:32:25;19.70;99.90
46440;DHT22;32138;50.966;6.968;2023-07-29T03:33:56;19.70;99.90
46440;DHT22;32138;50.966;6.968;2023-07-29T03:35:26;19.60;99.90
46440;DHT22;32138;50.966;6.968;2023-07-29T03:36:57;19.60;99.90
46440;DHT22;32138;50.966;6.968;2023-07-29T03:38:28;19.70;99.90
46440;DHT22;32138;50.966;6.968;2023-07-29T03:39:59;19.60;99.90
46440;DHT22;32138;50.966;6.968;2023-07-29T03:41:29;19.60;99.90
46440;DHT22;32138;50.966;6.968;2023-07-29T03:43:00;19.60;99.90
46440;DHT22;32138;50.966;6.968;2023-07-29T03:44:31;19.60;99.90
46440;DHT22;32138;50.966;6.968;2023-07-29T03:46:02;19.60;99.90
46440;DHT22;32138;50.966;6.968;2023-07-29T03:47:32;19.50;99.90
46440;DHT22;32138;50.966;6.968;2023-07-29T03:49:03;19.50;99.90
46440;DHT22;32138;50.966;6.968;2023-07-29T03:50:35;19.40;99.90
46440;DHT22;32138;50.966;6.968;2023-07-29T03:52:07;19.50;99.90
46440;DHT22;32138;50.966;6.968;2023-07-29T03:53:37;19.50;99.90
46440;DHT22;32138;50.966;6.968;2023-07-29T03:55:08;19.50;99.90
46440;DHT22;32138;50.966;6.968;2023-07-29T03:56:39;19.40;99.90
46440;DHT22;32138;50.966;6.968;2023-07-29T03:58:11;19.40;99.90
46440;DHT22;32138;50.966;6.968;2023-07-29T03:59:42;19.40;99.90
46440;DHT22;32138;50.966;6.968;2023-07-29T04:01:14;19.50;99.90
46440;DHT22;32138;50.966;6.968;2023-07-29T04:02:44;19.50;99.90
46440;DHT22;32138;50.966;6.968;2023-07-29T04:04:16;19.40;99.90
46440;DHT22;32138;50.966;6.968;2023-07-29T04:05:46;19.40;99.90
46440;DHT22;32138;50.966;6.968;2023-07-29T04:07:17;19.40;99.90
46440;DHT22;32138;50.966;6.968;2023-07-29T04:08:48;19.40;99.90
46440;DHT22;32138;50.966;6.968;2023-07-29T04:10:19;19.30;99.90
46440;DHT22;32138;50.966;6.968;2023-07-29T04:11:51;19.30;99.90
46440;DHT22;32138;50.966;6.968;2023-07-29T04:13:21;19.30;99.90
46440;DHT22;32138;50.966;6.968;2023-07-29T04:14:52;19.30;99.90
46440;DHT22;32138;50.966;6.968;2023-07-29T04:16:23;19.30;99.90
46440;DHT22;32138;50.966;6.968;2023-07-29T04:17:54;19.30;99.90
46440;DHT22;32138;50.966;6.968;2023-07-29T04:19:25;19.30;99.90
46440;DHT22;32138;50.966;6.968;2023-07-29T04:20:55;19.20;99.90
46440;DHT22;32138;50.966;6.968;2023-07-29T04:22:26;19.30;99.90
46440;DHT22;32138;50.966;6.968;2023-07-29T04:23:57;19.30;99.90
46440;DHT22;32138;50.966;6.968;2023-07-29T04:25:28;19.30;99.90
46440;DHT22;32138;50.966;6.968;2023-07-29T04:26:58;19.40;99.90
46440;DHT22;32138;50.966;6.968;2023-07-29T04:28:29;19.30;99.90
46440;DHT22;32138;50.966;6.968;2023-07-29T04:30:00;19.40;99.90
46440;DHT22;32138;50.966;6.968;2023-07-29T04:31:30;19.40;99.90
46440;DHT22;32138;50.966;6.968;2023-07-29T04:33:01;19.40;99.90
46440;DHT22;32138;50.966;6.968;2023-07-29T04:34:32;19.40;99.90
46440;DHT22;32138;50.966;6.968;2023-07-29T04:36:03;19.50;99.90
46440;DHT22;32138;50.966;6.968;2023-07-29T04:37:34;19.40;99.90
46440;DHT22;32138;50.966;6.968;2023-07-29T04:39:05;19.40;99.90
46440;DHT22;32138;50.966;6.968;2023-07-29T04:40:36;19.40;99.90
46440;DHT22;32138;50.966;6.968;2023-07-29T04:42:06;19.40;99.90
46440;DHT22;32138;50.966;6.968;2023-07-29T04:43:37;19.40;99.90
46440;DHT22;32138;50.966;6.968;2023-07-29T04:45:08;19.40;99.90
46440;DHT22;32138;50.966;6.968;2023-07-29T04:46:39;19.30;99.90
46440;DHT22;32138;50.966;6.968;2023-07-29T04:48:09;19.40;99.90
46440;DHT22;32138;50.966;6.968;2023-07-29T04:49:40;19.40;99.90
46440;DHT22;32138;50.966;6.968;2023-07-29T04:51:11;19.40;99.90
46440;DHT22;32138;50.966;6.968;2023-07-29T04:52:41;19.50;99.90
46440;DHT22;32138;50.966;6.968;2023-07-29T04:54:12;19.50;99.90
46440;DHT22;32138;50.966;6.968;2023-07-29T04:55:43;19.40;99.90
46440;DHT22;32138;50.966;6.968;2023-07-29T04:57:14;19.40;99.90
46440;DHT22;32138;50.966;6.968;2023-07-29T04:58:45;19.40;99.90
46440;DHT22;32138;50.966;6.968;2023-07-29T05:00:16;19.40;99.90
46440;DHT22;32138;50.966;6.968;2023-07-29T05:01:47;19.40;99.90
46440;DHT22;32138;50.966;6.968;2023-07-29T05:03:17;19.40;99.90
46440;DHT22;32138;50.966;6.968;2023-07-29T05:04:48;19.40;99.90
46440;DHT22;32138;50.966;6.968;2023-07-29T05:06:19;19.40;99.90
46440;DHT22;32138;50.966;6.968;2023-07-29T05:07:50;19.40;99.90
46440;DHT22;32138;50.966;6.968;2023-07-29T05:09:20;19.40;99.90
46440;DHT22;32138;50.966;6.968;2023-07-29T05:10:52;19.30;99.90
46440;DHT22;32138;50.966;6.968;2023-07-29T05:12:23;19.40;99.90
46440;DHT22;32138;50.966;6.968;2023-07-29T05:13:54;19.40;99.90
46440;DHT22;32138;50.966;6.968;2023-07-29T05:15:24;19.30;99.90
46440;DHT22;32138;50.966;6.968;2023-07-29T05:16:55;19.40;99.90
46440;DHT22;32138;50.966;6.968;2023-07-29T05:18:26;19.30;99.90
46440;DHT22;32138;50.966;6.968;2023-07-29T05:19:57;19.30;99.90
46440;DHT22;32138;50.966;6.968;2023-07-29T05:21:27;19.40;99.90
46440;DHT22;32138;50.966;6.968;2023-07-29T05:22:58;19.40;99.90
46440;DHT22;32138;50.966;6.968;2023-07-29T05:24:29;19.40;99.90
46440;DHT22;32138;50.966;6.968;2023-07-29T05:26:00;19.40;99.90
46440;DHT22;32138;50.966;6.968;2023-07-29T05:27:30;19.40;99.90
46440;DHT22;32138;50.966;6.968;2023-07-29T05:29:01;19.40;99.90
46440;DHT22;32138;50.966;6.968;2023-07-29T05:30:32;19.40;99.90
46440;DHT22;32138;50.966;6.968;2023-07-29T05:32:07;19.50;99.90
46440;DHT22;32138;50.966;6.968;2023-07-29T05:33:38;19.50;99.90
46440;DHT22;32138;50.966;6.968;2023-07-29T05:35:09;19.50;99.90
46440;DHT22;32138;50.966;6.968;2023-07-29T05:36:40;19.50;99.90
46440;DHT22;32138;50.966;6.968;2023-07-29T05:38:11;19.50;99.90
46440;DHT22;32138;50.966;6.968;2023-07-29T05:39:42;19.40;99.90
46440;DHT22;32138;50.966;6.968;2023-07-29T05:41:13;19.40;99.90
46440;DHT22;32138;50.966;6.968;2023-07-29T05:42:44;19.40;99.90
46440;DHT22;32138;50.966;6.968;2023-07-29T05:44:15;19.40;99.90
46440;DHT22;32138;50.966;6.968;2023-07-29T05:45:46;19.40;99.90
46440;DHT22;32138;50.966;6.968;2023-07-29T05:47:17;19.40;99.90
46440;DHT22;32138;50.966;6.968;2023-07-29T05:48:47;19.40;99.90
46440;DHT22;32138;50.966;6.968;2023-07-29T05:50:18;19.40;99.90
46440;DHT22;32138;50.966;6.968;2023-07-29T05:51:49;19.30;99.90
46440;DHT22;32138;50.966;6.968;2023-07-29T05:53:22;19.30;99.90
46440;DHT22;32138;50.966;6.968;2023-07-29T05:54:52;19.30;99.90
46440;DHT22;32138;50.966;6.968;2023-07-29T05:56:23;19.30;99.90
46440;DHT22;32138;50.966;6.968;2023-07-29T05:57:54;19.30;99.90
46440;DHT22;32138;50.966;6.968;2023-07-29T05:59:25;19.30;99.90
46440;DHT22;32138;50.966;6.968;2023-07-29T06:00:59;19.30;99.90
46440;DHT22;32138;50.966;6.968;2023-07-29T06:02:30;19.40;99.90
46440;DHT22;32138;50.966;6.968;2023-07-29T06:04:01;19.40;99.90
46440;DHT22;32138;50.966;6.968;2023-07-29T06:05:31;19.40;99.90
46440;DHT22;32138;50.966;6.968;2023-07-29T06:07:02;19.50;99.90
46440;DHT22;32138;50.966;6.968;2023-07-29T06:08:33;19.50;99.90
46440;DHT22;32138;50.966;6.968;2023-07-29T06:10:04;19.50;99.90
46440;DHT22;32138;50.966;6.968;2023-07-29T06:11:35;19.50;99.90
46440;DHT22;32138;50.966;6.968;2023-07-29T06:13:06;19.50;99.90
46440;DHT22;32138;50.966;6.968;2023-07-29T06:14:37;19.50;99.90
46440;DHT22;32138;50.966;6.968;2023-07-29T06:16:08;19.50;99.90
46440;DHT22;32138;50.966;6.968;2023-07-29T06:17:39;19.50;99.90
46440;DHT22;32138;50.966;6.968;2023-07-29T06:19:11;19.40;99.90
46440;DHT22;32138;50.966;6.968;2023-07-29T06:20:41;19.40;99.90
46440;DHT22;32138;50.966;6.968;2023-07-29T06:22:12;19.50;99.90
46440;DHT22;32138;50.966;6.968;2023-07-29T06:23:43;19.50;99.90
46440;DHT22;32138;50.966;6.968;2023-07-29T06:25:14;19.50;99.90
46440;DHT22;32138;50.966;6.968;2023-07-29T06:26:45;19.60;99.90
46440;DHT22;32138;50.966;6.968;2023-07-29T06:28:15;19.60;99.90
46440;DHT22;32138;50.966;6.968;2023-07-29T06:29:46;19.60;99.90
46440;DHT22;32138;50.966;6.968;2023-07-29T06:31:17;19.60;99.90
46440;DHT22;32138;50.966;6.968;2023-07-29T06:32:47;19.60;99.90
46440;DHT22;32138;50.966;6.968;2023-07-29T06:34:18;19.60;99.90
46440;DHT22;32138;50.966;6.968;2023-07-29T06:35:49;19.60;99.90
46440;DHT22;32138;50.966;6.968;2023-07-29T06:37:20;19.60;99.90
46440;DHT22;32138;50.966;6.968;2023-07-29T06:38:51;19.60;99.90
46440;DHT22;32138;50.966;6.968;2023-07-29T06:40:21;19.40;99.90
46440;DHT22;32138;50.966;6.968;2023-07-29T06:41:52;19.40;99.90
46440;DHT22;32138;50.966;6.968;2023-07-29T06:43:23;19.40;99.90
46440;DHT22;32138;50.966;6.968;2023-07-29T06:44:54;19.40;99.90
46440;DHT22;32138;50.966;6.968;2023-07-29T06:46:25;19.40;99.90
46440;DHT22;32138;50.966;6.968;2023-07-29T06:47:55;19.40;99.90
46440;DHT22;32138;50.966;6.968;2023-07-29T06:49:26;19.40;99.90
46440;DHT22;32138;50.966;6.968;2023-07-29T06:50:57;19.40;99.90
46440;DHT22;32138;50.966;6.968;2023-07-29T06:52:30;19.40;99.90
46440;DHT22;32138;50.966;6.968;2023-07-29T06:54:02;19.40;99.90
46440;DHT22;32138;50.966;6.968;2023-07-29T06:55:33;19.40;99.90
46440;DHT22;32138;50.966;6.968;2023-07-29T06:57:04;19.40;99.90
46440;DHT22;32138;50.966;6.968;2023-07-29T06:58:35;19.30;99.90
46440;DHT22;32138;50.966;6.968;2023-07-29T07:00:06;19.30;99.90
46440;DHT22;32138;50.966;6.968;2023-07-29T07:01:39;19.30;99.90
46440;DHT22;32138;50.966;6.968;2023-07-29T07:03:10;19.40;99.90
46440;DHT22;32138;50.966;6.968;2023-07-29T07:04:41;19.50;99.90
46440;DHT22;32138;50.966;6.968;2023-07-29T07:06:11;19.50;99.90
46440;DHT22;32138;50.966;6.968;2023-07-29T07:07:42;19.40;99.90
46440;DHT22;32138;50.966;6.968;2023-07-29T07:09:13;19.50;99.90
46440;DHT22;32138;50.966;6.968;2023-07-29T07:10:44;19.50;99.90
46440;DHT22;32138;50.966;6.968;2023-07-29T07:12:14;19.60;99.90
46440;DHT22;32138;50.966;6.968;2023-07-29T07:13:45;19.60;99.90
46440;DHT22;32138;50.966;6.968;2023-07-29T07:15:16;19.60;99.90
46440;DHT22;32138;50.966;6.968;2023-07-29T07:16:46;19.60;99.90
46440;DHT22;32138;50.966;6.968;2023-07-29T07:18:17;19.50;99.90
46440;DHT22;32138;50.966;6.968;2023-07-29T07:19:48;19.60;99.90
46440;DHT22;32138;50.966;6.968;2023-07-29T07:21:19;19.60;99.90
46440;DHT22;32138;50.966;6.968;2023-07-29T07:22:49;19.70;99.90
46440;DHT22;32138;50.966;6.968;2023-07-29T07:24:20;19.70;99.90
46440;DHT22;32138;50.966;6.968;2023-07-29T07:25:51;19.60;99.90
46440;DHT22;32138;50.966;6.968;2023-07-29T07:27:22;19.60;99.90
46440;DHT22;32138;50.966;6.968;2023-07-29T07:28:53;19.70;99.90
46440;DHT22;32138;50.966;6.968;2023-07-29T07:30:24;19.70;99.90
46440;DHT22;32138;50.966;6.968;2023-07-29T07:31:56;19.70;99.90
46440;DHT22;32138;50.966;6.968;2023-07-29T07:33:27;19.60;99.90
46440;DHT22;32138;50.966;6.968;2023-07-29T07:34:57;19.60;99.90
46440;DHT22;32138;50.966;6.968;2023-07-29T07:36:29;19.70;99.90
46440;DHT22;32138;50.966;6.968;2023-07-29T07:38:00;19.70;99.90
46440;DHT22;32138;50.966;6.968;2023-07-29T07:39:32;19.70;99.90
46440;DHT22;32138;50.966;6.968;2023-07-29T07:41:03;19.80;99.90
46440;DHT22;32138;50.966;6.968;2023-07-29T07:42:33;19.80;99.90
46440;DHT22;32138;50.966;6.968;2023-07-29T07:44:04;19.70;99.90
46440;DHT22;32138;50.966;6.968;2023-07-29T07:45:36;19.70;99.90
46440;DHT22;32138;50.966;6.968;2023-07-29T07:47:06;19.80;99.90
46440;DHT22;32138;50.966;6.968;2023-07-29T07:48:38;19.80;99.90
46440;DHT22;32138;50.966;6.968;2023-07-29T07:50:09;19.90;99.90
46440;DHT22;32138;50.966;6.968;2023-07-29T07:51:39;20.00;99.90
46440;DHT22;32138;50.966;6.968;2023-07-29T07:53:10;20.10;99.90
46440;DHT22;32138;50.966;6.968;2023-07-29T07:54:41;20.10;99.90
46440;DHT22;32138;50.966;6.968;2023-07-29T07:56:12;20.10;99.90
46440;DHT22;32138;50.966;6.968;2023-07-29T07:57:42;20.20;99.90
46440;DHT22;32138;50.966;6.968;2023-07-29T07:59:13;20.30;99.90
46440;DHT22;32138;50.966;6.968;2023-07-29T08:00:44;20.20;99.90
46440;DHT22;32138;50.966;6.968;2023-07-29T08:02:14;20.20;99.90
46440;DHT22;32138;50.966;6.968;2023-07-29T08:03:45;20.20;99.90
46440;DHT22;32138;50.966;6.968;2023-07-29T08:05:16;20.00;99.90
46440;DHT22;32138;50.966;6.968;2023-07-29T08:06:47;19.90;99.90
46440;DHT22;32138;50.966;6.968;2023-07-29T08:08:17;20.00;99.90
46440;DHT22;32138;50.966;6.968;2023-07-29T08:09:48;20.00;99.90
46440;DHT22;32138;50.966;6.968;2023-07-29T08:11:19;20.10;99.90
46440;DHT22;32138;50.966;6.968;2023-07-29T08:12:50;20.20;99.90
46440;DHT22;32138;50.966;6.968;2023-07-29T08:14:20;20.20;99.90
46440;DHT22;32138;50.966;6.968;2023-07-29T08:15:52;20.20;99.90
46440;DHT22;32138;50.966;6.968;2023-07-29T08:17:23;20.30;99.90
46440;DHT22;32138;50.966;6.968;2023-07-29T08:18:54;20.40;99.90
46440;DHT22;32138;50.966;6.968;2023-07-29T08:20:24;20.60;99.90
46440;DHT22;32138;50.966;6.968;2023-07-29T08:21:55;20.70;99.90
46440;DHT22;32138;50.966;6.968;2023-07-29T08:23:26;20.80;99.90
46440;DHT22;32138;50.966;6.968;2023-07-29T08:24:57;20.70;99.90
46440;DHT22;32138;50.966;6.968;2023-07-29T08:26:27;20.50;99.90
46440;DHT22;32138;50.966;6.968;2023-07-29T08:27:58;20.50;99.90
46440;DHT22;32138;50.966;6.968;2023-07-29T08:29:29;20.60;99.90
46440;DHT22;32138;50.966;6.968;2023-07-29T08:31:00;20.70;99.90
46440;DHT22;32138;50.966;6.968;2023-07-29T08:32:31;20.90;99.90
46440;DHT22;32138;50.966;6.968;2023-07-29T08:34:01;20.80;99.90
46440;DHT22;32138;50.966;6.968;2023-07-29T08:35:32;20.90;99.90
46440;DHT22;32138;50.966;6.968;2023-07-29T08:37:03;20.90;99.90
46440;DHT22;32138;50.966;6.968;2023-07-29T08:38:34;20.90;99.90
46440;DHT22;32138;50.966;6.968;2023-07-29T08:40:05;20.90;99.90
46440;DHT22;32138;50.966;6.968;2023-07-29T08:42:00;20.80;99.90
46440;DHT22;32138;50.966;6.968;2023-07-29T08:43:38;20.90;99.90
46440;DHT22;32138;50.966;6.968;2023-07-29T08:45:09;20.80;99.90
46440;DHT22;32138;50.966;6.968;2023-07-29T08:46:41;20.80;99.90
46440;DHT22;32138;50.966;6.968;2023-07-29T08:48:13;20.80;99.90
46440;DHT22;32138;50.966;6.968;2023-07-29T08:49:47;20.90;99.90
46440;DHT22;32138;50.966;6.968;2023-07-29T08:51:19;20.90;99.90
46440;DHT22;32138;50.966;6.968;2023-07-29T08:52:52;20.80;99.90
46440;DHT22;32138;50.966;6.968;2023-07-29T08:54:23;20.80;99.90
46440;DHT22;32138;50.966;6.968;2023-07-29T08:55:54;20.70;99.90
46440;DHT22;32138;50.966;6.968;2023-07-29T08:57:26;20.70;99.90
46440;DHT22;32138;50.966;6.968;2023-07-29T08:58:57;20.70;99.90
46440;DHT22;32138;50.966;6.968;2023-07-29T09:00:31;20.70;99.90
46440;DHT22;32138;50.966;6.968;2023-07-29T09:02:02;20.80;99.90
46440;DHT22;32138;50.966;6.968;2023-07-29T09:03:32;20.80;99.90
46440;DHT22;32138;50.966;6.968;2023-07-29T09:05:04;20.60;99.90
46440;DHT22;32138;50.966;6.968;2023-07-29T09:06:36;20.60;99.90
46440;DHT22;32138;50.966;6.968;2023-07-29T09:08:08;20.50;99.90
46440;DHT22;32138;50.966;6.968;2023-07-29T09:09:39;20.50;99.90
46440;DHT22;32138;50.966;6.968;2023-07-29T09:11:10;20.50;99.90
46440;DHT22;32138;50.966;6.968;2023-07-29T09:12:44;20.50;99.90
46440;DHT22;32138;50.966;6.968;2023-07-29T09:14:15;20.50;99.90
46440;DHT22;32138;50.966;6.968;2023-07-29T09:15:45;20.40;99.90
46440;DHT22;32138;50.966;6.968;2023-07-29T09:17:16;20.40;99.90
46440;DHT22;32138;50.966;6.968;2023-07-29T09:18:51;20.40;99.90
46440;DHT22;32138;50.966;6.968;2023-07-29T09:20:28;20.30;99.90
46440;DHT22;32138;50.966;6.968;2023-07-29T09:21:59;20.30;99.90
46440;DHT22;32138;50.966;6.968;2023-07-29T09:23:41;20.30;99.90
46440;DHT22;32138;50.966;6.968;2023-07-29T09:25:12;20.20;99.90
46440;DHT22;32138;50.966;6.968;2023-07-29T09:26:50;20.30;99.90
46440;DHT22;32138;50.966;6.968;2023-07-29T09:28:21;20.30;99.90
46440;DHT22;32138;50.966;6.968;2023-07-29T09:29:52;20.30;99.90
46440;DHT22;32138;50.966;6.968;2023-07-29T09:31:26;20.40;99.90
46440;DHT22;32138;50.966;6.968;2023-07-29T09:32:58;20.40;99.90
46440;DHT22;32138;50.966;6.968;2023-07-29T09:34:29;20.40;99.90
46440;DHT22;32138;50.966;6.968;2023-07-29T09:36:00;20.40;99.90
46440;DHT22;32138;50.966;6.968;2023-07-29T09:37:32;20.40;99.90
46440;DHT22;32138;50.966;6.968;2023-07-29T09:39:03;20.40;99.90
46440;DHT22;32138;50.966;6.968;2023-07-29T09:40:38;20.50;99.90
46440;DHT22;32138;50.966;6.968;2023-07-29T09:42:16;20.50;99.90